createdAt,value
2019-04-25T00:00:48.269Z,60.71
2019-04-25T00:04:52.091Z,62.30
2019-04-25T00:08:55.752Z,64.61
2019-04-25T00:13:03.632Z,64.10
2019-04-25T00:17:08.412Z,67.16
2019-04-25T00:21:19.767Z,67.48
2019-04-25T00:25:31.334Z,68.87
2019-04-25T00:29:35.316Z,70.09
2019-04-25T00:33:38.812Z,69.25
2019-04-25T00:37:44.342Z,69.55
2019-04-25T00:41:47.549Z,69.31
2019-04-25T00:45:51.645Z,69.13
2019-04-25T00:49:56.143Z,70.38
2019-04-25T00:53:59.960Z,69.67
2019-04-25T00:58:05.963Z,69.31
2019-04-25T01:02:11.503Z,69.57
2019-04-25T01:06:15.526Z,67.95
2019-04-25T01:10:19.214Z,68.40
2019-04-25T01:14:22.727Z,68.66
2019-04-25T01:18:27.418Z,68.94
2019-04-25T01:22:31.204Z,69.08
2019-04-25T01:26:34.972Z,69.67
2019-04-25T01:30:39.185Z,69.59
2019-04-25T01:34:44.384Z,69.62
2019-04-25T01:38:58.886Z,69.78
2019-04-25T01:43:13.793Z,70.96
2019-04-25T01:47:18.909Z,70.85
2019-04-25T01:51:24.004Z,70.42
2019-04-25T01:55:27.638Z,69.82
2019-04-25T01:59:31.119Z,70.08
2019-04-25T02:03:35.679Z,70.07
2019-04-25T02:07:39.544Z,69.59
2019-04-25T02:11:44.800Z,69.25
2019-04-25T02:15:48.284Z,69.63
2019-04-25T02:19:52.189Z,69.54
2019-04-25T02:23:58.136Z,69.59
2019-04-25T02:28:03.740Z,69.54
2019-04-25T02:32:08.959Z,69.79
2019-04-25T02:36:14.478Z,69.90
2019-04-25T02:40:20.614Z,70.12
2019-04-25T02:44:24.799Z,70.24
2019-04-25T02:48:30.045Z,70.63
2019-04-25T02:52:41.511Z,70.43
2019-04-25T02:56:48.212Z,71.02
2019-04-25T03:01:03.144Z,70.47
2019-04-25T03:04:59.286Z,71.12
2019-04-25T03:09:09.917Z,70.69
2019-04-25T03:13:14.878Z,69.68
2019-04-25T03:17:18.493Z,70.74
2019-04-25T03:21:24.957Z,71.18
2019-04-25T03:25:28.718Z,71.39
2019-04-25T03:29:32.197Z,71.84
2019-04-25T03:33:38.450Z,70.00
2019-04-25T03:37:41.265Z,70.88
2019-04-25T03:41:45.481Z,71.34
2019-04-25T03:45:49.370Z,70.42
2019-04-25T03:49:55.193Z,70.60
2019-04-25T03:53:58.156Z,70.65
2019-04-25T03:58:08.025Z,69.87
2019-04-25T04:02:10.980Z,71.12
2019-04-25T04:06:15.623Z,71.63
2019-04-25T04:10:21.171Z,71.81
2019-04-25T04:14:24.808Z,72.75
2019-04-25T04:18:39.544Z,72.36
2019-04-25T04:22:44.836Z,71.52
2019-04-25T04:27:07.941Z,72.34
2019-04-25T04:31:12.233Z,73.01
2019-04-25T04:35:17.466Z,73.01
2019-04-25T04:39:21.089Z,72.18
2019-04-25T04:43:25.631Z,71.43
2019-04-25T04:47:29.161Z,71.06
2019-04-25T04:51:33.598Z,71.17
2019-04-25T04:55:37.462Z,71.02
2019-04-25T04:59:40.920Z,70.57
2019-04-25T05:03:48.507Z,70.55
2019-04-25T05:07:53.988Z,69.72
2019-04-25T05:11:57.467Z,68.39
2019-04-25T05:16:00.967Z,67.96
2019-04-25T05:20:06.496Z,67.46
2019-04-25T05:24:09.995Z,68.43
2019-04-25T05:28:16.179Z,68.78
2019-04-25T05:32:21.280Z,69.41
2019-04-25T05:36:26.962Z,68.93
2019-04-25T05:40:30.458Z,69.12
2019-04-25T05:44:34.389Z,69.60
2019-04-25T05:48:38.307Z,69.13
2019-04-25T05:52:45.999Z,69.06
2019-04-25T05:56:49.852Z,67.55
2019-04-25T06:00:55.065Z,67.27
2019-04-25T06:04:58.590Z,66.39
2019-04-25T06:09:15.725Z,64.88
2019-04-25T06:13:27.887Z,63.78
2019-04-25T06:17:34.300Z,63.58
2019-04-25T06:21:38.000Z,61.18
2019-04-25T06:25:43.787Z,61.19
2019-04-25T06:29:58.260Z,59.07
2019-04-25T06:33:54.101Z,53.90
2019-04-25T06:37:57.799Z,52.98
2019-04-25T06:42:01.670Z,53.07
2019-04-25T06:46:24.791Z,52.07
2019-04-25T06:50:29.051Z,51.98
2019-04-25T06:54:33.538Z,49.25
2019-04-25T06:58:38.002Z,47.91
2019-04-25T07:02:41.491Z,46.33
2019-04-25T07:06:45.604Z,47.71
2019-04-25T07:10:49.214Z,48.35
2019-04-25T07:14:53.901Z,47.97
2019-04-25T07:18:57.470Z,49.98
2019-04-25T07:23:00.964Z,48.36
2019-04-25T07:27:18.592Z,46.21
2019-04-25T07:31:37.059Z,46.86
2019-04-25T07:35:40.652Z,42.08
2019-04-25T07:39:44.326Z,36.31
2019-04-25T07:43:47.824Z,32.18
2019-04-25T07:47:53.650Z,34.08
2019-04-25T07:51:57.346Z,34.50
2019-04-25T07:56:00.838Z,34.23
2019-04-25T08:00:08.047Z,28.42
2019-04-25T08:04:11.515Z,31.60
2019-04-25T08:08:15.014Z,33.00
2019-04-25T08:12:18.821Z,34.97
2019-04-25T08:16:24.047Z,37.17
2019-04-25T08:20:29.261Z,34.44
2019-04-25T08:24:35.967Z,32.19
2019-04-25T08:28:53.990Z,29.42
2019-04-25T08:32:45.583Z,28.64
2019-04-25T08:36:49.084Z,31.61
2019-04-25T08:40:55.524Z,33.24
2019-04-25T08:44:58.268Z,32.01
2019-04-25T08:49:06.173Z,29.67
2019-04-25T08:53:09.055Z,31.98
2019-04-25T08:57:14.263Z,32.69
2019-04-25T09:01:20.829Z,31.81
2019-04-25T09:05:29.102Z,28.90
2019-04-25T09:09:35.398Z,26.24
2019-04-25T09:13:38.628Z,26.42
2019-04-25T09:17:44.489Z,25.11
2019-04-25T09:21:49.623Z,24.21
2019-04-25T09:25:54.448Z,26.70
2019-04-25T09:29:58.043Z,28.77
2019-04-25T09:34:01.576Z,30.95
2019-04-25T09:38:05.235Z,28.09
2019-04-25T09:42:09.451Z,25.55
2019-04-25T09:46:14.706Z,24.84
2019-04-25T09:50:33.863Z,29.14
2019-04-25T09:54:48.364Z,28.46
2019-04-25T09:58:55.506Z,28.83
2019-04-25T10:02:59.508Z,27.64
2019-04-25T10:07:03.538Z,24.28
2019-04-25T10:11:07.346Z,29.02
2019-04-25T10:15:33.666Z,28.83
2019-04-25T10:19:37.760Z,27.67
2019-04-25T10:23:44.066Z,27.48
2019-04-25T10:27:49.205Z,26.12
2019-04-25T10:31:55.463Z,24.77
2019-04-25T10:35:59.540Z,26.95
2019-04-25T10:40:05.685Z,25.13
2019-04-25T10:44:09.586Z,25.13
2019-04-25T10:48:13.723Z,25.91
2019-04-25T10:52:18.051Z,26.28
2019-04-25T10:56:21.612Z,27.93
2019-04-25T11:00:28.486Z,30.94
2019-04-25T11:04:48.236Z,30.76
2019-04-25T11:08:51.368Z,26.81
2019-04-25T11:12:55.293Z,27.82
2019-04-25T11:16:59.043Z,32.23
2019-04-25T11:21:05.779Z,31.58
2019-04-25T11:25:08.566Z,31.11
2019-04-25T11:29:13.313Z,29.88
2019-04-25T11:33:18.798Z,29.88
2019-04-25T11:37:24.023Z,32.28
2019-04-25T11:41:27.804Z,30.64
2019-04-25T11:45:31.327Z,29.89
2019-04-25T11:49:34.832Z,31.16
2019-04-25T11:53:38.666Z,29.71
2019-04-25T11:57:48.297Z,31.35
2019-04-25T12:01:48.517Z,31.35
2019-04-25T12:05:53.131Z,29.06
2019-04-25T12:09:56.679Z,28.42
2019-04-25T12:14:00.368Z,30.17
2019-04-25T12:18:04.651Z,30.30
2019-04-25T12:22:08.384Z,29.11
2019-04-25T12:26:11.897Z,28.70
2019-04-25T12:30:16.004Z,29.02
2019-04-25T12:34:19.631Z,31.70
2019-04-25T12:38:24.583Z,31.76
2019-04-25T12:42:28.185Z,28.68
2019-04-25T12:46:34.822Z,30.36
2019-04-25T12:50:38.518Z,31.53
2019-04-25T12:54:42.092Z,30.79
2019-04-25T12:58:45.586Z,34.18
2019-04-25T13:02:49.361Z,29.99
2019-04-25T13:06:54.423Z,30.85
2019-04-25T13:11:07.568Z,28.92
2019-04-25T13:15:03.516Z,28.07
2019-04-25T13:19:16.488Z,30.54
2019-04-25T13:23:14.411Z,34.14
2019-04-25T13:27:28.436Z,29.39
2019-04-25T13:31:44.314Z,31.81
2019-04-25T13:35:55.484Z,33.24
2019-04-25T13:40:00.475Z,29.55
2019-04-25T13:44:05.578Z,31.16
2019-04-25T13:48:09.305Z,32.15
2019-04-25T13:52:13.968Z,32.30
2019-04-25T13:56:17.915Z,32.82
2019-04-25T14:00:24.726Z,31.43
2019-04-25T14:04:29.389Z,34.12
2019-04-25T14:08:33.540Z,30.86
2019-04-25T14:12:37.144Z,32.25
2019-04-25T14:16:43.424Z,32.00
2019-04-25T14:20:49.043Z,33.14
2019-04-25T14:24:54.073Z,33.14
2019-04-25T14:29:00.680Z,31.57
2019-04-25T14:33:04.797Z,32.77
2019-04-25T14:37:09.620Z,33.92
2019-04-25T14:41:13.207Z,31.40
2019-04-25T14:45:16.871Z,33.10
2019-04-25T14:49:20.365Z,31.55
2019-04-25T14:53:24.414Z,32.71
2019-04-25T14:57:29.882Z,34.11
2019-04-25T15:01:44.064Z,32.46
2019-04-25T15:05:41.845Z,32.69
2019-04-25T15:09:44.608Z,32.30
2019-04-25T15:13:48.395Z,31.69
2019-04-25T15:17:51.945Z,34.39
2019-04-25T15:21:55.460Z,31.89
2019-04-25T15:25:59.119Z,34.75
2019-04-25T15:30:04.600Z,32.51
2019-04-25T15:34:08.167Z,32.54
2019-04-25T15:38:16.220Z,33.47
2019-04-25T15:42:39.233Z,32.97
2019-04-25T15:46:44.378Z,34.13
2019-04-25T15:50:48.038Z,33.87
2019-04-25T15:54:51.711Z,34.66
2019-04-25T15:58:55.692Z,35.59
2019-04-25T16:02:59.309Z,34.46
2019-04-25T16:07:02.806Z,34.72
2019-04-25T16:11:06.305Z,33.85
2019-04-25T16:15:10.130Z,34.74
2019-04-25T16:19:13.614Z,33.54
2019-04-25T16:23:17.259Z,34.55
2019-04-25T16:27:21.318Z,36.32
2019-04-25T16:31:28.964Z,35.81
2019-04-25T16:35:33.445Z,35.68
2019-04-25T16:39:37.009Z,34.98
2019-04-25T16:43:43.187Z,35.23
2019-04-25T16:47:47.164Z,36.23
2019-04-25T16:51:50.710Z,34.92
2019-04-25T16:55:54.206Z,35.56
2019-04-25T16:59:57.710Z,35.45
2019-04-25T17:04:01.423Z,34.90
2019-04-25T17:08:05.293Z,35.60
2019-04-25T17:12:10.332Z,37.45
2019-04-25T17:16:22.206Z,37.69
2019-04-25T17:20:30.726Z,38.10
2019-04-25T17:24:34.636Z,37.94
2019-04-25T17:28:39.760Z,38.24
2019-04-25T17:33:01.842Z,37.85
2019-04-25T17:37:06.974Z,38.90
2019-04-25T17:41:10.522Z,39.70
2019-04-25T17:45:16.263Z,40.38
2019-04-25T17:49:19.941Z,40.22
2019-04-25T17:53:23.434Z,39.91
2019-04-25T17:57:26.917Z,40.22
2019-04-25T18:01:30.715Z,42.13
2019-04-25T18:05:35.175Z,40.41
2019-04-25T18:09:38.865Z,40.79
2019-04-25T18:13:42.611Z,40.95
2019-04-25T18:17:46.651Z,39.70
2019-04-25T18:21:50.438Z,39.47
2019-04-25T18:26:01.478Z,39.99
2019-04-25T18:30:06.776Z,40.79
2019-04-25T18:34:11.908Z,40.15
2019-04-25T18:38:17.478Z,39.50
2019-04-25T18:42:25.158Z,39.02
2019-04-25T18:46:33.388Z,39.02
2019-04-25T18:50:37.349Z,39.49
2019-04-25T18:54:43.497Z,39.81
2019-04-25T18:59:04.814Z,39.39
2019-04-25T19:03:22.973Z,38.99
2019-04-25T19:07:24.283Z,38.65
2019-04-25T19:11:28.078Z,39.48
2019-04-25T19:15:31.580Z,39.04
2019-04-25T19:19:35.230Z,39.01
2019-04-25T19:23:40.470Z,38.78
2019-04-25T19:27:44.503Z,38.98
2019-04-25T19:31:48.410Z,39.80
2019-04-25T19:35:52.302Z,39.69
2019-04-25T19:40:09.393Z,40.76
2019-04-25T19:44:14.553Z,40.87
2019-04-25T19:48:18.213Z,40.35
2019-04-25T19:52:21.729Z,39.85
2019-04-25T19:56:25.188Z,39.96
2019-04-25T20:00:28.693Z,39.57
2019-04-25T20:04:33.873Z,40.03
2019-04-25T20:08:56.750Z,39.64
2019-04-25T20:13:00.225Z,39.89
2019-04-25T20:17:03.777Z,39.76
2019-04-25T20:21:07.260Z,40.16
2019-04-25T20:25:11.283Z,40.26
2019-04-25T20:29:16.215Z,40.30
2019-04-25T20:33:19.721Z,39.54
2019-04-25T20:37:23.205Z,39.85
2019-04-25T20:41:26.784Z,39.72
2019-04-25T20:45:30.485Z,40.38
2019-04-25T20:49:33.983Z,41.11
2019-04-25T20:53:37.850Z,41.49
2019-04-25T20:57:41.372Z,39.92
2019-04-25T21:01:44.891Z,41.67
2019-04-25T21:05:50.963Z,39.55
2019-04-25T21:09:55.337Z,40.68
2019-04-25T21:14:03.478Z,39.69
2019-04-25T21:18:08.936Z,39.97
2019-04-25T21:22:12.873Z,38.85
2019-04-25T21:26:16.906Z,39.17
2019-04-25T21:30:20.413Z,39.21
2019-04-25T21:34:27.131Z,39.13
2019-04-25T21:38:29.531Z,39.21
2019-04-25T21:42:34.938Z,38.74
2019-04-25T21:46:39.893Z,38.97
2019-04-25T21:50:45.196Z,38.76
2019-04-25T21:54:48.728Z,39.10
2019-04-25T21:58:53.352Z,38.85
2019-04-25T22:03:00.214Z,39.22
2019-04-25T22:07:04.060Z,39.02
2019-04-25T22:11:08.614Z,40.06
2019-04-25T22:15:13.034Z,39.34
2019-04-25T22:19:16.884Z,39.67
2019-04-25T22:23:20.986Z,39.05
2019-04-25T22:27:26.399Z,39.49
2019-04-25T22:31:47.706Z,39.21
2019-04-25T22:35:52.828Z,40.69
2019-04-25T22:39:56.581Z,40.87
2019-04-25T22:44:01.236Z,40.07
2019-04-25T22:48:06.659Z,41.06
2019-04-25T22:52:11.187Z,40.97
2019-04-25T22:56:14.862Z,41.20
2019-04-25T23:00:20.208Z,41.48
2019-04-25T23:04:25.634Z,41.06
2019-04-25T23:08:29.204Z,41.22
2019-04-25T23:12:32.969Z,43.13
2019-04-25T23:16:36.529Z,41.65
2019-04-25T23:20:40.117Z,42.75
2019-04-25T23:24:54.327Z,43.19
2019-04-25T23:28:59.468Z,43.64
2019-04-25T23:33:02.962Z,44.86
2019-04-25T23:37:07.715Z,43.99
2019-04-25T23:41:13.603Z,44.26
2019-04-25T23:45:18.194Z,44.28
2019-04-25T23:49:21.704Z,44.75
2019-04-25T23:53:25.377Z,44.25
2019-04-25T23:57:28.871Z,44.42
